createdAt,value
2022-10-18T00:01:27.512Z,88.74
2022-10-18T00:04:30.826Z,88.10
2022-10-18T00:07:33.625Z,88.01
2022-10-18T00:10:37.026Z,88.86
2022-10-18T00:13:41.005Z,88.94
2022-10-18T00:16:44.421Z,88.50
2022-10-18T00:19:48.249Z,88.21
2022-10-18T00:22:51.661Z,88.34
2022-10-18T00:26:11.820Z,88.04
2022-10-18T00:29:16.277Z,89.08
2022-10-18T00:32:19.460Z,89.29
2022-10-18T00:35:22.463Z,89.13
2022-10-18T00:38:25.083Z,89.18
2022-10-18T00:41:33.056Z,89.79
2022-10-18T00:44:38.509Z,89.35
2022-10-18T00:47:43.546Z,89.65
2022-10-18T00:50:57.042Z,90.04
2022-10-18T00:54:00.821Z,89.68
2022-10-18T00:57:05.305Z,89.61
2022-10-18T01:00:13.044Z,89.96
2022-10-18T01:03:16.407Z,89.65
2022-10-18T01:06:20.131Z,89.50
2022-10-18T01:09:39.744Z,89.29
2022-10-18T01:13:24.835Z,88.81
2022-10-18T01:16:32.164Z,88.73
2022-10-18T01:20:09.339Z,89.08
2022-10-18T01:23:21.137Z,88.79
2022-10-18T01:26:42.260Z,88.89
2022-10-18T01:29:59.409Z,89.43
2022-10-18T01:33:34.316Z,89.27
2022-10-18T01:36:56.660Z,89.09
2022-10-18T01:40:03.687Z,89.81
2022-10-18T01:43:10.261Z,89.89
2022-10-18T01:46:18.713Z,89.93
2022-10-18T01:49:21.742Z,89.90
2022-10-18T01:52:25.091Z,89.35
2022-10-18T01:55:39.081Z,89.18
2022-10-18T01:58:49.006Z,89.05
2022-10-18T02:02:10.834Z,89.35
2022-10-18T02:05:19.375Z,89.42
2022-10-18T02:08:35.393Z,89.21
2022-10-18T02:11:42.761Z,89.59
2022-10-18T02:14:46.067Z,89.83
2022-10-18T02:17:48.877Z,90.37
2022-10-18T02:20:52.126Z,90.45
2022-10-18T02:23:56.987Z,90.67
2022-10-18T02:26:59.901Z,90.26
2022-10-18T02:30:05.043Z,89.82
2022-10-18T02:33:15.418Z,90.63
2022-10-18T02:36:41.259Z,90.97
2022-10-18T02:39:50.281Z,91.11
2022-10-18T02:42:59.077Z,90.92
2022-10-18T02:46:02.161Z,91.00
2022-10-18T02:49:05.977Z,90.59
2022-10-18T02:52:09.602Z,90.71
2022-10-18T02:55:13.981Z,91.46
2022-10-18T02:58:16.802Z,90.54
2022-10-18T03:01:20.091Z,90.76
2022-10-18T03:04:23.162Z,91.16
2022-10-18T03:07:26.518Z,90.90
2022-10-18T03:10:29.153Z,90.68
2022-10-18T03:13:34.305Z,91.39
2022-10-18T03:16:37.085Z,91.26
2022-10-18T03:19:40.543Z,90.41
2022-10-18T03:22:43.552Z,90.56
2022-10-18T03:25:46.642Z,90.50
2022-10-18T03:28:50.421Z,91.79
2022-10-18T03:31:55.144Z,92.11
2022-10-18T03:35:01.238Z,92.23
2022-10-18T03:38:04.306Z,92.59
2022-10-18T03:41:09.363Z,92.46
2022-10-18T03:44:12.485Z,92.35
2022-10-18T03:47:15.149Z,92.69
2022-10-18T03:50:18.737Z,92.76
2022-10-18T03:53:23.171Z,92.61
2022-10-18T03:56:26.676Z,92.07
2022-10-18T03:59:29.468Z,91.65
2022-10-18T04:02:32.722Z,91.73
2022-10-18T04:05:36.750Z,91.96
2022-10-18T04:08:42.015Z,92.43
2022-10-18T04:11:45.453Z,92.56
2022-10-18T04:14:49.043Z,93.02
2022-10-18T04:17:52.000Z,93.12
2022-10-18T04:20:56.952Z,93.38
2022-10-18T04:24:00.189Z,93.39
2022-10-18T04:27:05.024Z,93.48
2022-10-18T04:30:09.203Z,93.66
2022-10-18T04:33:15.392Z,93.48
2022-10-18T04:36:22.119Z,93.57
2022-10-18T04:39:26.251Z,93.83
2022-10-18T04:42:30.302Z,93.96
2022-10-18T04:45:35.708Z,93.85
2022-10-18T04:48:38.728Z,93.76
2022-10-18T04:51:41.810Z,93.75
2022-10-18T04:54:45.141Z,93.62
2022-10-18T04:57:49.311Z,93.83
2022-10-18T05:00:54.946Z,93.56
2022-10-18T05:04:01.337Z,93.31
2022-10-18T05:07:06.996Z,93.48
2022-10-18T05:10:11.022Z,93.63
2022-10-18T05:13:17.274Z,93.82
2022-10-18T05:16:20.280Z,93.82
2022-10-18T05:19:24.074Z,93.37
2022-10-18T05:22:28.691Z,93.63
2022-10-18T05:25:32.037Z,93.74
2022-10-18T05:28:40.451Z,93.31
2022-10-18T05:31:44.665Z,92.79
2022-10-18T05:34:47.729Z,92.21
2022-10-18T05:37:50.829Z,91.83
2022-10-18T05:40:55.387Z,91.18
2022-10-18T05:43:58.750Z,91.26
2022-10-18T05:47:07.367Z,91.48
2022-10-18T05:50:13.539Z,91.21
2022-10-18T05:53:35.896Z,90.93
2022-10-18T05:56:41.079Z,89.98
2022-10-18T05:59:45.900Z,87.58
2022-10-18T06:02:50.007Z,84.02
2022-10-18T06:06:11.091Z,81.42
2022-10-18T06:09:15.138Z,79.40
2022-10-18T06:12:19.291Z,77.80
2022-10-18T06:15:22.483Z,77.10
2022-10-18T06:18:25.909Z,75.78
2022-10-18T06:21:28.683Z,75.55
2022-10-18T06:24:32.184Z,74.56
2022-10-18T06:27:36.609Z,71.05
2022-10-18T06:30:41.816Z,69.52
2022-10-18T06:34:15.917Z,69.08
2022-10-18T06:42:47.690Z,65.14
2022-10-18T06:46:24.888Z,66.27
2022-10-18T06:49:29.753Z,66.58
2022-10-18T06:52:33.203Z,65.65
2022-10-18T06:55:36.418Z,64.91
2022-10-18T06:58:39.993Z,64.86
2022-10-18T07:01:45.197Z,64.19
2022-10-18T07:04:50.543Z,62.84
2022-10-18T07:07:56.536Z,62.52
2022-10-18T07:11:02.409Z,61.13
2022-10-18T07:14:20.801Z,60.20
2022-10-18T07:17:24.711Z,58.44
2022-10-18T07:20:29.679Z,59.00
2022-10-18T07:23:37.702Z,58.46
2022-10-18T07:27:14.055Z,58.86
2022-10-18T07:30:40.761Z,57.81
2022-10-18T07:33:52.647Z,56.66
2022-10-18T07:36:56.622Z,55.91
2022-10-18T07:40:00.896Z,55.48
2022-10-18T07:43:42.196Z,54.77
2022-10-18T07:47:19.016Z,53.67
2022-10-18T07:51:17.627Z,53.41
2022-10-18T07:54:26.059Z,53.34
2022-10-18T07:57:33.490Z,51.51
2022-10-18T08:00:42.542Z,50.55
2022-10-18T08:04:04.585Z,50.87
2022-10-18T08:07:10.091Z,49.22
2022-10-18T08:11:14.026Z,49.43
2022-10-18T08:14:42.952Z,49.91
2022-10-18T08:17:46.168Z,50.19
2022-10-18T08:20:49.117Z,49.00
2022-10-18T08:23:54.241Z,46.49
2022-10-18T08:26:57.349Z,46.05
2022-10-18T08:30:02.963Z,45.27
2022-10-18T08:33:07.037Z,46.30
2022-10-18T08:36:13.040Z,45.90
2022-10-18T08:39:17.134Z,45.20
2022-10-18T08:42:40.030Z,44.63
2022-10-18T08:45:45.195Z,46.27
2022-10-18T08:48:55.666Z,44.88
2022-10-18T08:52:00.121Z,45.00
2022-10-18T08:55:14.970Z,44.90
2022-10-18T08:58:17.746Z,45.01
2022-10-18T09:02:02.316Z,46.72
2022-10-18T09:05:21.783Z,46.00
2022-10-18T09:08:41.422Z,46.16
2022-10-18T09:12:07.858Z,46.42
2022-10-18T09:15:29.947Z,46.25
2022-10-18T09:19:20.275Z,45.34
2022-10-18T09:22:54.992Z,44.09
2022-10-18T09:26:15.711Z,45.37
2022-10-18T09:29:37.992Z,44.46
2022-10-18T09:32:43.876Z,44.61
2022-10-18T09:35:55.571Z,44.59
2022-10-18T09:39:05.700Z,45.63
2022-10-18T09:42:19.616Z,43.55
2022-10-18T09:45:31.402Z,43.81
2022-10-18T09:48:52.867Z,44.82
2022-10-18T09:52:01.097Z,44.21
2022-10-18T09:55:15.710Z,42.75
2022-10-18T09:58:37.316Z,42.14
2022-10-18T10:01:40.901Z,41.46
2022-10-18T10:04:45.029Z,41.11
2022-10-18T10:07:49.854Z,40.45
2022-10-18T10:10:53.940Z,40.64
2022-10-18T10:14:10.980Z,40.67
2022-10-18T10:17:25.925Z,41.19
2022-10-18T10:20:45.896Z,41.53
2022-10-18T10:24:01.107Z,41.51
2022-10-18T10:27:07.418Z,42.22
2022-10-18T10:30:30.296Z,43.09
2022-10-18T10:33:36.338Z,43.11
2022-10-18T10:37:41.282Z,42.14
2022-10-18T10:40:53.136Z,42.10
2022-10-18T10:43:56.998Z,42.12
2022-10-18T10:47:04.005Z,42.26
2022-10-18T10:50:13.029Z,43.23
2022-10-18T10:53:27.586Z,42.23
2022-10-18T10:56:38.040Z,42.08
2022-10-18T11:00:03.062Z,42.05
2022-10-18T11:03:29.452Z,41.93
2022-10-18T11:07:02.804Z,42.87
2022-10-18T11:10:10.193Z,42.96
2022-10-18T11:13:16.319Z,43.06
2022-10-18T11:16:54.929Z,42.69
2022-10-18T11:20:09.986Z,42.57
2022-10-18T11:23:17.117Z,43.45
2022-10-18T11:26:53.791Z,43.13
2022-10-18T11:30:19.653Z,42.30
2022-10-18T11:34:08.327Z,42.98
2022-10-18T11:37:36.051Z,43.44
2022-10-18T11:40:54.692Z,44.11
2022-10-18T11:44:04.341Z,43.12
2022-10-18T11:47:15.161Z,42.51
2022-10-18T11:50:45.006Z,44.19
2022-10-18T11:54:12.226Z,42.58
2022-10-18T11:57:26.199Z,42.37
2022-10-18T12:00:41.376Z,41.84
2022-10-18T12:04:22.034Z,41.45
2022-10-18T12:07:35.062Z,41.94
2022-10-18T12:11:06.241Z,41.97
2022-10-18T12:14:38.449Z,40.97
2022-10-18T12:17:50.240Z,40.59
2022-10-18T12:20:59.024Z,39.41
2022-10-18T12:24:13.105Z,39.40
2022-10-18T12:27:27.020Z,40.16
2022-10-18T12:30:52.574Z,39.99
2022-10-18T12:33:59.071Z,41.25
2022-10-18T12:37:16.519Z,42.10
2022-10-18T12:40:32.206Z,41.25
2022-10-18T12:43:40.022Z,41.74
2022-10-18T12:46:50.311Z,42.38
2022-10-18T12:50:06.177Z,41.84
2022-10-18T12:53:09.761Z,40.65
2022-10-18T12:56:38.415Z,41.00
2022-10-18T12:59:44.234Z,40.63
2022-10-18T13:03:15.048Z,41.12
2022-10-18T13:06:19.430Z,41.67
2022-10-18T13:09:22.751Z,41.03
2022-10-18T13:12:31.042Z,40.98
2022-10-18T13:15:54.089Z,42.23
2022-10-18T13:19:15.984Z,41.18
2022-10-18T13:22:54.929Z,40.73
2022-10-18T13:26:24.965Z,40.53
2022-10-18T13:29:56.641Z,40.62
2022-10-18T13:33:32.303Z,41.56
2022-10-18T13:36:36.730Z,41.62
2022-10-18T13:39:45.321Z,41.90
2022-10-18T13:42:53.778Z,41.97
2022-10-18T13:46:03.093Z,41.50
2022-10-18T13:49:44.466Z,41.29
2022-10-18T13:53:23.046Z,41.50
2022-10-18T13:56:57.724Z,41.32
2022-10-18T14:00:24.680Z,42.79
2022-10-18T14:03:58.960Z,42.96
2022-10-18T14:07:06.197Z,43.23
2022-10-18T14:11:02.805Z,42.47
2022-10-18T14:14:34.546Z,42.13
2022-10-18T14:17:49.224Z,42.65
2022-10-18T14:21:13.413Z,42.14
2022-10-18T14:24:23.734Z,42.57
2022-10-18T14:27:33.465Z,45.17
2022-10-18T14:30:52.981Z,46.16
2022-10-18T14:34:05.080Z,45.56
2022-10-18T14:37:22.266Z,44.72
2022-10-18T14:40:40.111Z,45.59
2022-10-18T14:44:20.421Z,47.04
2022-10-18T14:47:30.665Z,49.22
2022-10-18T14:50:47.034Z,48.88
2022-10-18T14:53:52.509Z,49.73
2022-10-18T14:57:03.699Z,50.31
2022-10-18T15:00:22.040Z,49.08
2022-10-18T15:03:32.454Z,49.56
2022-10-18T15:06:48.550Z,50.28
2022-10-18T15:09:54.165Z,51.70
2022-10-18T15:13:11.159Z,50.94
2022-10-18T15:16:22.096Z,51.42
2022-10-18T15:20:06.154Z,53.39
2022-10-18T15:23:28.525Z,55.38
2022-10-18T15:26:48.022Z,55.81
2022-10-18T15:29:54.127Z,55.93
2022-10-18T15:33:11.230Z,56.29
2022-10-18T15:36:30.068Z,57.37
2022-10-18T15:39:46.011Z,58.16
2022-10-18T15:43:03.571Z,58.78
2022-10-18T15:46:32.136Z,60.35
2022-10-18T15:49:53.072Z,61.28
2022-10-18T15:53:27.199Z,62.72
2022-10-18T15:56:36.268Z,63.35
2022-10-18T16:00:02.382Z,62.77
2022-10-18T16:03:21.053Z,64.52
2022-10-18T16:06:38.136Z,65.42
2022-10-18T16:09:49.299Z,66.84
2022-10-18T16:12:59.456Z,67.59
2022-10-18T16:20:28.094Z,68.74
2022-10-18T16:23:45.120Z,68.64
2022-10-18T16:26:54.343Z,69.46
2022-10-18T16:30:48.287Z,68.33
2022-10-18T16:37:31.280Z,71.76
2022-10-18T16:40:41.289Z,71.59
2022-10-18T16:43:56.631Z,72.40
2022-10-18T16:47:02.401Z,71.82
2022-10-18T16:50:08.989Z,72.38
2022-10-18T16:53:24.036Z,72.58
2022-10-18T16:56:30.667Z,73.92
2022-10-18T16:59:50.113Z,74.47
2022-10-18T17:03:04.072Z,74.48
2022-10-18T17:10:19.098Z,74.61
2022-10-18T17:13:47.021Z,75.32
2022-10-18T17:17:14.561Z,76.37
2022-10-18T17:20:43.966Z,75.71
2022-10-18T17:24:33.171Z,77.44
2022-10-18T17:27:43.029Z,77.29
2022-10-18T17:30:57.366Z,76.84
2022-10-18T17:34:02.277Z,76.62
2022-10-18T17:37:18.251Z,76.79
2022-10-18T17:40:30.257Z,76.58
2022-10-18T17:43:48.512Z,77.86
2022-10-18T17:46:54.026Z,77.63
2022-10-18T17:50:01.183Z,77.89
2022-10-18T17:53:13.262Z,78.35
2022-10-18T17:56:32.999Z,78.87
2022-10-18T17:59:42.204Z,78.27
2022-10-18T18:02:49.160Z,78.91
2022-10-18T18:06:40.866Z,79.42
2022-10-18T18:09:45.996Z,79.37
2022-10-18T18:13:00.239Z,80.03
2022-10-18T18:16:20.587Z,80.24
2022-10-18T18:19:28.823Z,81.10
2022-10-18T18:22:41.747Z,81.56
2022-10-18T18:26:03.044Z,82.11
2022-10-18T18:29:08.969Z,82.56
2022-10-18T18:32:17.264Z,82.77
2022-10-18T18:35:25.731Z,83.45
2022-10-18T18:38:35.125Z,83.04
2022-10-18T18:41:46.929Z,82.96
2022-10-18T18:44:52.653Z,82.53
2022-10-18T18:48:05.755Z,83.13
2022-10-18T18:52:22.172Z,83.29
2022-10-18T18:55:55.068Z,82.94
2022-10-18T18:59:16.230Z,83.39
2022-10-18T19:02:33.787Z,83.62
2022-10-18T19:06:29.606Z,83.00
2022-10-18T19:09:54.109Z,83.66
2022-10-18T19:18:23.183Z,84.29
2022-10-18T19:22:02.837Z,84.94
2022-10-18T19:33:48.830Z,83.81
2022-10-18T19:37:16.234Z,83.96
2022-10-18T19:40:34.000Z,84.10
2022-10-18T19:43:38.667Z,84.03
2022-10-18T19:46:50.030Z,84.78
2022-10-18T19:49:55.593Z,84.98
2022-10-18T19:56:24.412Z,84.24
2022-10-18T19:59:28.188Z,84.32
2022-10-18T20:02:34.394Z,84.28
2022-10-18T20:05:41.603Z,84.29
2022-10-18T20:08:47.352Z,84.49
2022-10-18T20:12:02.732Z,84.42
2022-10-18T20:15:18.530Z,85.60
2022-10-18T20:18:23.866Z,86.01
2022-10-18T20:21:32.049Z,85.74
2022-10-18T20:24:42.995Z,85.28
2022-10-18T20:27:46.573Z,85.65
2022-10-18T20:31:04.744Z,85.79
2022-10-18T20:34:12.141Z,86.25
2022-10-18T20:37:17.342Z,85.92
2022-10-18T20:40:21.971Z,86.34
2022-10-18T20:43:29.017Z,86.63
2022-10-18T20:46:37.030Z,86.92
2022-10-18T20:49:40.000Z,86.93
2022-10-18T20:52:43.906Z,87.66
2022-10-18T20:55:49.966Z,87.33
2022-10-18T20:59:02.075Z,87.02
2022-10-18T21:02:13.099Z,86.69
2022-10-18T21:05:18.969Z,86.30
2022-10-18T21:08:22.447Z,87.14
2022-10-18T21:11:26.162Z,87.78
2022-10-18T21:14:29.096Z,87.92
2022-10-18T21:17:31.960Z,87.86
2022-10-18T21:20:42.125Z,87.64
2022-10-18T21:23:47.352Z,87.40
2022-10-18T21:26:52.226Z,87.52
2022-10-18T21:29:55.046Z,87.18
2022-10-18T21:32:58.231Z,86.77
2022-10-18T21:36:04.996Z,86.58
2022-10-18T21:39:14.003Z,86.39
2022-10-18T21:42:18.220Z,86.35
2022-10-18T21:45:21.166Z,86.24
2022-10-18T21:48:24.778Z,86.90
2022-10-18T21:51:29.007Z,86.75
2022-10-18T21:54:32.131Z,86.60
2022-10-18T22:00:43.563Z,87.84
2022-10-18T22:03:49.508Z,87.58
2022-10-18T22:06:53.308Z,88.05
2022-10-18T22:09:56.171Z,88.28
2022-10-18T22:13:00.048Z,88.47
2022-10-18T22:16:05.595Z,88.50
2022-10-18T22:19:08.418Z,88.50
2022-10-18T22:22:18.235Z,88.26
2022-10-18T22:25:22.421Z,88.82
2022-10-18T22:28:25.671Z,88.21
2022-10-18T22:31:33.055Z,88.65
2022-10-18T22:34:35.838Z,88.32
2022-10-18T22:37:39.700Z,88.23
2022-10-18T22:40:44.617Z,88.21
2022-10-18T22:43:47.863Z,88.77
2022-10-18T22:46:51.480Z,88.57
2022-10-18T22:49:54.999Z,88.60
2022-10-18T22:52:57.920Z,87.74
2022-10-18T22:56:00.690Z,88.39
2022-10-18T22:59:03.782Z,88.98
2022-10-18T23:02:06.493Z,88.58
2022-10-18T23:05:09.659Z,88.19
2022-10-18T23:08:14.979Z,88.18
2022-10-18T23:11:19.788Z,88.15
2022-10-18T23:14:23.424Z,88.53
2022-10-18T23:17:28.268Z,88.88
2022-10-18T23:20:31.823Z,88.52
2022-10-18T23:23:37.143Z,88.13
2022-10-18T23:26:39.781Z,88.56
2022-10-18T23:29:43.884Z,88.56
2022-10-18T23:32:46.903Z,88.39
2022-10-18T23:35:50.348Z,87.99
2022-10-18T23:38:53.570Z,88.92
2022-10-18T23:41:57.081Z,88.63
2022-10-18T23:45:00.005Z,88.12
2022-10-18T23:48:03.071Z,88.03
2022-10-18T23:51:08.633Z,88.67
2022-10-18T23:54:11.687Z,89.15
2022-10-18T23:57:14.301Z,88.80
